Time;durP1;ratioP1;P1;durP2;ratioP2;P2;SDS_P1;SDS_P2;PMS_P1;PMS_P2;Temp;Humidity;BMP_temperature;BMP_pressure;BME280_temperature;BME280_humidity;BME280_pressure;Samples;Min_cycle;Max_cycle;Signal;HPM_P1;HPM_P2
2023/10/22 00:02:03;;;;;;;;;;;;;;;;;;112832;209;41851;-43
2023/10/22 00:04:35;;;;;;;;;;;;;;;;;;112875;209;45914;-42
2023/10/22 00:07:14;;;;;;;;;;;;;;;;;;112894;209;39388;-41
2023/10/22 00:09:46;;;;;;;;;;;;;;;;;;112836;209;42766;-42
2023/10/22 00:12:20;;;;;;;;;;;;;;;;;;112820;209;41761;-41
2023/10/22 00:14:54;;;;;;;;;;;;;;;;;;112857;209;44952;-43
2023/10/22 00:17:29;;;;;;;;;;;;;;;;;;112849;209;39500;-45
2023/10/22 00:20:02;;;;;;;;;;;;;;;;;;112831;209;43878;-43
2023/10/22 00:22:37;;;;;;;;;;;;;;;;;;112789;209;42905;-42
2023/10/22 00:25:13;;;;;;;;;;;;;;;;;;112899;209;46058;-41
2023/10/22 00:27:47;;;;;;;;;;;;;;;;;;112877;209;39470;-42
2023/10/22 00:30:24;;;;;;;;;;;;;;;;;;112903;209;42509;-42
2023/10/22 00:32:56;;;;;;;;;;;;;;;;;;112789;209;42787;-42
2023/10/22 00:35:30;;;;;;;;;;;;;;;;;;112827;209;44829;-41
2023/10/22 00:38:09;;;;;;;;;;;;;;;;;;112847;209;39584;-42
2023/10/22 00:40:45;;;;;;;;;;;;;;;;;;112827;209;42747;-42
2023/10/22 00:43:21;;;;;;;;;;;;;;;;;;112766;209;43295;-43
2023/10/22 00:45:55;;;;;;;;;;;;;;;;;;112857;209;39941;-42
2023/10/22 00:48:30;;;;;;;;;;;;;;;;;;112785;209;39527;-42
2023/10/22 00:51:07;;;;;;;;;;;;;;;;;;112841;209;42603;-42
2023/10/22 00:53:41;;;;;;;;;;;;;;;;;;112773;209;42503;-41
2023/10/22 00:56:14;;;;;;;;;;;;;;;;;;112813;209;38727;-43
2023/10/22 00:58:48;;;;;;;;;;;;;;;;;;112796;209;39587;-42
2023/10/22 01:01:22;;;;;;;;;;;;;;;;;;112730;209;175699;-42
2023/10/22 01:03:59;;;;;;;;;;;;;;;;;;112800;209;41815;-42
2023/10/22 01:06:34;;;;;;;;;;;;;;;;;;112858;209;39222;-42
2023/10/22 01:09:09;;;;;;;;;;;;;;;;;;112842;209;39552;-42
2023/10/22 01:12:00;;;;;;;;;;;;;;;;;;112833;209;42761;-43
2023/10/22 01:14:34;;;;;;;;;;;;;;;;;;112777;209;42081;-42
2023/10/22 01:17:07;;;;;;;;;;;;;;;;;;112815;209;38879;-42
2023/10/22 01:19:43;;;;;;;;;;;;;;;;;;112809;209;39606;-42
2023/10/22 01:22:16;;;;;;;;;;;;;;;;;;112812;209;44743;-43
2023/10/22 01:24:54;;;;;;;;;;;;;;;;;;112778;209;41419;-42
2023/10/22 01:27:29;;;;;;;;;;;;;;;;;;112853;209;39906;-42
2023/10/22 01:30:06;;;;;;;;;;;;;;;;;;112810;209;39466;-42
2023/10/22 01:32:39;;;;;;;;;;;;;;;;;;112832;209;42818;-42
2023/10/22 01:35:12;;;;;;;;;;;;;;;;;;112764;209;41865;-42
2023/10/22 01:37:45;;;;;;;;;;;;;;;;;;112835;209;38839;-41
2023/10/22 01:40:21;;;;;;;;;;;;;;;;;;112572;209;39635;-41
2023/10/22 01:42:54;;;;;;;;;;;;;;;;;;112868;209;42787;-41
2023/10/22 01:45:27;;;;;;;;;;;;;;;;;;112788;209;41587;-42
2023/10/22 01:48:00;;;;;;;;;;;;;;;;;;112777;209;38715;-42
2023/10/22 01:50:33;;;;;;;;;;;;;;;;;;112813;209;40220;-43
2023/10/22 01:53:09;;;;;;;;;;;;;;;;;;112810;209;42755;-44
2023/10/22 01:55:45;;;;;;;;;;;;;;;;;;112769;209;43013;-44
2023/10/22 01:58:19;;;;;;;;;;;;;;;;;;112818;209;39197;-42
2023/10/22 02:01:03;;;;;;;;;;;;;;;;;;112832;209;39906;-42
2023/10/22 02:03:37;;;;;;;;;;;;;;;;;;112822;209;42544;-43
2023/10/22 02:06:18;;;;;;;;;;;;;;;;;;112740;209;41381;-42
2023/10/22 02:08:50;;;;;;;;;;;;;;;;;;112810;209;38470;-43
2023/10/22 02:11:25;;;;;;;;;;;;;;;;;;112780;209;39281;-41
2023/10/22 02:14:03;;;;;;;;;;;;;;;;;;112831;209;44105;-43
2023/10/22 02:16:42;;;;;;;;;;;;;;;;;;112754;209;41436;-41
2023/10/22 02:19:15;;;;;;;;;;;;;;;;;;112824;209;38588;-44
2023/10/22 02:21:53;;;;;;;;;;;;;;;;;;112816;209;39532;-44
2023/10/22 02:24:28;;;;;;;;;;;;;;;;;;112810;209;42523;-41
2023/10/22 02:27:01;;;;;;;;;;;;;;;;;;112787;209;41828;-41
2023/10/22 02:29:36;;;;;;;;;;;;;;;;;;112796;209;38895;-42
2023/10/22 02:32:09;;;;;;;;;;;;;;;;;;112777;209;39310;-42
2023/10/22 02:34:41;;;;;;;;;;;;;;;;;;112726;209;44215;-42
2023/10/22 02:37:14;;;;;;;;;;;;;;;;;;112716;209;42009;-42
2023/10/22 02:39:52;;;;;;;;;;;;;;;;;;112769;209;38464;-42
2023/10/22 02:42:27;;;;;;;;;;;;;;;;;;112749;210;39326;-41
2023/10/22 02:45:02;;;;;;;;;;;;;;;;;;112760;210;42681;-41
2023/10/22 02:47:35;;;;;;;;;;;;;;;;;;111554;210;895797;-41
2023/10/22 02:50:09;;;;;;;;;;;;;;;;;;112752;209;38445;-43
2023/10/22 02:52:43;;;;;;;;;;;;;;;;;;112565;210;40197;-41
2023/10/22 02:55:20;;;;;;;;;;;;;;;;;;112756;210;42503;-43
2023/10/22 02:57:59;;;;;;;;;;;;;;;;;;112667;209;41688;-43
2023/10/22 03:00:35;;;;;;;;;;;;;;;;;;112740;209;38778;-42
2023/10/22 03:03:10;;;;;;;;;;;;;;;;;;112746;209;40646;-43
2023/10/22 03:05:46;;;;;;;;;;;;;;;;;;112768;209;43107;-42
2023/10/22 03:08:21;;;;;;;;;;;;;;;;;;112723;209;47504;-43
2023/10/22 03:10:55;;;;;;;;;;;;;;;;;;112735;210;40238;-41
2023/10/22 03:13:28;;;;;;;;;;;;;;;;;;112795;210;39890;-42
2023/10/22 03:16:14;;;;;;;;;;;;;;;;;;112810;209;42523;-42
2023/10/22 03:19:11;;;;;;;;;;;;;;;;;;112765;209;47448;-43
2023/10/22 03:21:45;;;;;;;;;;;;;;;;;;112083;214;38448;-42
2023/10/22 03:24:17;;;;;;;;;;;;;;;;;;112066;214;39303;-43
2023/10/22 03:26:52;;;;;;;;;;;;;;;;;;112013;214;43830;-42
2023/10/22 03:29:27;;;;;;;;;;;;;;;;;;112071;214;42931;-43
2023/10/22 03:32:02;;;;;;;;;;;;;;;;;;112075;214;38796;-43
2023/10/22 03:34:36;;;;;;;;;;;;;;;;;;112085;214;39718;-42
2023/10/22 03:37:10;;;;;;;;;;;;;;;;;;112039;214;42767;-43
2023/10/22 03:39:44;;;;;;;;;;;;;;;;;;112069;214;42916;-42
2023/10/22 03:42:18;;;;;;;;;;;;;;;;;;111924;214;175358;-42
2023/10/22 03:44:52;;;;;;;;;;;;;;;;;;111945;214;175702;-43
2023/10/22 03:47:25;;;;;;;;;;;;;;;;;;111925;214;175705;-42
2023/10/22 03:49:57;;;;;;;;;;;;;;;;;;112071;214;42209;-42
2023/10/22 03:52:30;;;;;;;;;;;;;;;;;;111978;211;192042;-42
2023/10/22 03:55:06;;;;;;;;;;;;;;;;;;112600;211;39570;-42
2023/10/22 03:57:41;;;;;;;;;;;;;;;;;;112592;211;42533;-43
2023/10/22 04:00:15;;;;;;;;;;;;;;;;;;112669;211;41591;-43
2023/10/22 04:02:47;;;;;;;;;;;;;;;;;;112623;211;38746;-42
2023/10/22 04:05:22;;;;;;;;;;;;;;;;;;112655;211;39797;-42
2023/10/22 04:07:56;;;;;;;;;;;;;;;;;;112590;211;42754;-42
2023/10/22 04:10:29;;;;;;;;;;;;;;;;;;112585;211;41537;-42
2023/10/22 04:13:04;;;;;;;;;;;;;;;;;;112615;211;38899;-43
2023/10/22 04:15:39;;;;;;;;;;;;;;;;;;112661;211;39819;-44
2023/10/22 04:18:13;;;;;;;;;;;;;;;;;;112590;211;42750;-42
2023/10/22 04:20:48;;;;;;;;;;;;;;;;;;112456;211;175729;-44
2023/10/22 04:23:22;;;;;;;;;;;;;;;;;;112618;211;38501;-43
2023/10/22 04:25:55;;;;;;;;;;;;;;;;;;112633;211;39502;-43
2023/10/22 04:28:28;;;;;;;;;;;;;;;;;;112548;211;42801;-42
2023/10/22 04:31:00;;;;;;;;;;;;;;;;;;112610;211;41575;-48
2023/10/22 04:33:34;;;;;;;;;;;;;;;;;;112590;211;38464;-41
2023/10/22 04:36:14;;;;;;;;;;;;;;;;;;112615;211;39522;-42
2023/10/22 04:38:49;;;;;;;;;;;;;;;;;;112604;211;42871;-42
2023/10/22 04:41:22;;;;;;;;;;;;;;;;;;112612;211;41517;-42
2023/10/22 04:43:57;;;;;;;;;;;;;;;;;;112582;211;38624;-41
2023/10/22 04:46:34;;;;;;;;;;;;;;;;;;112601;211;39320;-42
2023/10/22 04:49:10;;;;;;;;;;;;;;;;;;112570;211;42573;-42
2023/10/22 04:51:47;;;;;;;;;;;;;;;;;;112602;211;41578;-43
2023/10/22 04:54:24;;;;;;;;;;;;;;;;;;112553;211;40114;-42
2023/10/22 04:56:59;;;;;;;;;;;;;;;;;;112549;211;39890;-42
2023/10/22 04:59:35;;;;;;;;;;;;;;;;;;112373;211;42522;-43
2023/10/22 05:02:10;;;;;;;;;;;;;;;;;;112551;211;41666;-42
2023/10/22 05:04:47;;;;;;;;;;;;;;;;;;112528;211;38916;-42
2023/10/22 05:07:23;;;;;;;;;;;;;;;;;;112594;211;39827;-42
2023/10/22 05:09:57;;;;;;;;;;;;;;;;;;112503;211;42909;-42
2023/10/22 05:12:34;;;;;;;;;;;;;;;;;;112520;211;175631;-43
2023/10/22 05:15:09;;;;;;;;;;;;;;;;;;112619;211;38977;-42
2023/10/22 05:17:46;;;;;;;;;;;;;;;;;;112594;211;39354;-42
2023/10/22 05:20:23;;;;;;;;;;;;;;;;;;112564;211;42678;-43
2023/10/22 05:23:03;;;;;;;;;;;;;;;;;;112449;211;175603;-42
2023/10/22 05:25:42;;;;;;;;;;;;;;;;;;112606;211;39781;-44
2023/10/22 05:28:19;;;;;;;;;;;;;;;;;;112636;211;40905;-43
2023/10/22 05:30:51;;;;;;;;;;;;;;;;;;112536;211;43280;-43
2023/10/22 05:33:28;;;;;;;;;;;;;;;;;;112654;211;41432;-44
2023/10/22 05:36:04;;;;;;;;;;;;;;;;;;112556;211;38832;-42
2023/10/22 05:38:37;;;;;;;;;;;;;;;;;;112590;211;39295;-42
2023/10/22 05:41:22;;;;;;;;;;;;;;;;;;112603;210;44087;-42
2023/10/22 05:43:56;;;;;;;;;;;;;;;;;;112630;210;40507;-43
2023/10/22 05:46:35;;;;;;;;;;;;;;;;;;112596;210;38460;-42
2023/10/22 05:49:15;;;;;;;;;;;;;;;;;;112603;210;40633;-42
2023/10/22 05:51:51;;;;;;;;;;;;;;;;;;112561;210;48670;-42
2023/10/22 05:54:26;;;;;;;;;;;;;;;;;;112639;210;42806;-42
2023/10/22 05:57:03;;;;;;;;;;;;;;;;;;112645;210;40145;-42
2023/10/22 05:59:38;;;;;;;;;;;;;;;;;;112614;210;39281;-43
2023/10/22 06:02:13;;;;;;;;;;;;;;;;;;112591;210;44149;-42
2023/10/22 06:04:46;;;;;;;;;;;;;;;;;;112678;210;41567;-42
2023/10/22 06:07:22;;;;;;;;;;;;;;;;;;112547;210;175073;-43
2023/10/22 06:09:57;;;;;;;;;;;;;;;;;;112595;210;40426;-42
2023/10/22 06:12:33;;;;;;;;;;;;;;;;;;112601;210;49122;-42
2023/10/22 06:15:17;;;;;;;;;;;;;;;;;;112633;210;41577;-43
2023/10/22 06:17:52;;;;;;;;;;;;;;;;;;112640;210;39036;-43
2023/10/22 06:20:31;;;;;;;;;;;;;;;;;;112570;210;40755;-43
2023/10/22 06:23:06;;;;;;;;;;;;;;;;;;112476;210;175623;-42
2023/10/22 06:25:40;;;;;;;;;;;;;;;;;;112623;210;41681;-42
2023/10/22 06:28:15;;;;;;;;;;;;;;;;;;112599;210;38446;-43
2023/10/22 06:30:48;;;;;;;;;;;;;;;;;;112602;210;40042;-42
2023/10/22 06:33:23;;;;;;;;;;;;;;;;;;112688;210;42543;-42
2023/10/22 06:36:05;;;;;;;;;;;;;;;;;;112590;210;41807;-42
2023/10/22 06:38:40;;;;;;;;;;;;;;;;;;112658;210;38464;-42
2023/10/22 06:41:21;;;;;;;;;;;;;;;;;;112641;210;39555;-43
2023/10/22 06:43:55;;;;;;;;;;;;;;;;;;112584;210;41863;-43
2023/10/22 06:46:34;;;;;;;;;;;;;;;;;;112588;210;41407;-43
2023/10/22 06:49:07;;;;;;;;;;;;;;;;;;112602;210;38472;-42
2023/10/22 06:51:44;;;;;;;;;;;;;;;;;;112592;210;39821;-43
2023/10/22 06:54:17;;;;;;;;;;;;;;;;;;112618;210;42703;-43
2023/10/22 06:56:51;;;;;;;;;;;;;;;;;;112685;210;41531;-42
2023/10/22 06:59:29;;;;;;;;;;;;;;;;;;112647;210;38429;-44
2023/10/22 07:02:06;;;;;;;;;;;;;;;;;;112574;210;39574;-43
2023/10/22 07:04:42;;;;;;;;;;;;;;;;;;112590;210;42770;-44
2023/10/22 07:07:21;;;;;;;;;;;;;;;;;;112628;210;41803;-48
2023/10/22 07:09:58;;;;;;;;;;;;;;;;;;112619;210;39181;-43
2023/10/22 07:12:34;;;;;;;;;;;;;;;;;;112576;210;39564;-44
2023/10/22 07:15:15;;;;;;;;;;;;;;;;;;112600;210;42904;-42
2023/10/22 07:17:49;;;;;;;;;;;;;;;;;;112622;210;41549;-42
2023/10/22 07:20:24;;;;;;;;;;;;;;;;;;112653;210;38482;-42
2023/10/22 07:22:58;;;;;;;;;;;;;;;;;;112603;210;40031;-42
2023/10/22 07:25:33;;;;;;;;;;;;;;;;;;112657;210;42491;-43
2023/10/22 07:28:08;;;;;;;;;;;;;;;;;;112624;210;41404;-43
2023/10/22 07:30:48;;;;;;;;;;;;;;;;;;112610;210;38602;-43
2023/10/22 07:33:29;;;;;;;;;;;;;;;;;;112560;210;39262;-43
2023/10/22 07:36:04;;;;;;;;;;;;;;;;;;112515;210;175635;-42
2023/10/22 07:38:41;;;;;;;;;;;;;;;;;;112575;210;41393;-43
2023/10/22 07:41:20;;;;;;;;;;;;;;;;;;112632;210;38725;-43
2023/10/22 07:43:54;;;;;;;;;;;;;;;;;;112578;210;39523;-44
2023/10/22 07:46:33;;;;;;;;;;;;;;;;;;112578;210;42471;-43
2023/10/22 07:49:08;;;;;;;;;;;;;;;;;;112645;210;41442;-44
2023/10/22 07:51:48;;;;;;;;;;;;;;;;;;112623;210;38757;-44
2023/10/22 07:54:27;;;;;;;;;;;;;;;;;;112577;210;47126;-44
2023/10/22 07:57:05;;;;;;;;;;;;;;;;;;112645;210;43053;-43
2023/10/22 07:59:41;;;;;;;;;;;;;;;;;;112612;210;41441;-46
2023/10/22 08:02:20;;;;;;;;;;;;;;;;;;112534;210;39917;-45
2023/10/22 08:04:54;;;;;;;;;;;;;;;;;;112564;210;45522;-42
2023/10/22 08:07:30;;;;;;;;;;;;;;;;;;112623;210;42882;-42
2023/10/22 08:10:09;;;;;;;;;;;;;;;;;;112593;210;41669;-43
2023/10/22 08:12:50;;;;;;;;;;;;;;;;;;112588;210;38770;-42
2023/10/22 08:15:28;;;;;;;;;;;;;;;;;;112560;210;39553;-43
2023/10/22 08:18:05;;;;;;;;;;;;;;;;;;112629;210;42777;-42
2023/10/22 08:20:39;;;;;;;;;;;;;;;;;;112646;210;41486;-43
2023/10/22 08:23:13;;;;;;;;;;;;;;;;;;112598;210;38462;-43
2023/10/22 08:25:57;;;;;;;;;;;;;;;;;;112642;210;39876;-43
2023/10/22 08:28:32;;;;;;;;;;;;;;;;;;112642;210;42958;-42
2023/10/22 08:31:07;;;;;;;;;;;;;;;;;;112592;210;42873;-42
2023/10/22 08:33:42;;;;;;;;;;;;;;;;;;112590;210;40016;-42
2023/10/22 08:36:18;;;;;;;;;;;;;;;;;;112622;210;39491;-43
2023/10/22 08:38:53;;;;;;;;;;;;;;;;;;112613;210;43884;-42
2023/10/22 08:41:36;;;;;;;;;;;;;;;;;;112698;210;41958;-42
2023/10/22 08:44:10;;;;;;;;;;;;;;;;;;112636;210;38784;-42
2023/10/22 08:46:44;;;;;;;;;;;;;;;;;;112602;210;39576;-43
2023/10/22 08:49:20;;;;;;;;;;;;;;;;;;112605;210;42748;-43
2023/10/22 08:51:59;;;;;;;;;;;;;;;;;;112570;210;41402;-44
2023/10/22 08:54:37;;;;;;;;;;;;;;;;;;112555;210;38898;-41
2023/10/22 08:57:09;;;;;;;;;;;;;;;;;;112564;210;40705;-42
2023/10/22 08:59:50;;;;;;;;;;;;;;;;;;112633;210;42843;-43
2023/10/22 09:02:28;;;;;;;;;;;;;;;;;;112617;210;41838;-44
2023/10/22 09:05:01;;;;;;;;;;;;;;;;;;112683;210;38909;-42
2023/10/22 09:07:56;;;;;;;;;;;;;;;;;;112611;210;40894;-42
2023/10/22 09:10:31;;;;;;;;;;;;;;;;;;112431;210;43146;-42
2023/10/22 09:13:15;;;;;;;;;;;;;;;;;;112534;210;175104;-43
2023/10/22 09:15:52;;;;;;;;;;;;;;;;;;112622;210;38752;-42
2023/10/22 09:18:27;;;;;;;;;;;;;;;;;;112597;210;40675;-43
2023/10/22 09:21:07;;;;;;;;;;;;;;;;;;112615;210;42633;-43
2023/10/22 09:23:41;;;;;;;;;;;;;;;;;;112656;210;43294;-43
2023/10/22 09:26:20;;;;;;;;;;;;;;;;;;112525;210;45290;-43
2023/10/22 09:29:05;;;;;;;;;;;;;;;;;;112606;210;39885;-43
2023/10/22 09:31:37;;;;;;;;;;;;;;;;;;112615;210;42854;-44
2023/10/22 09:34:26;;;;;;;;;;;;;;;;;;112555;210;42960;-43
2023/10/22 09:37:04;;;;;;;;;;;;;;;;;;112566;210;46147;-42
2023/10/22 09:39:42;;;;;;;;;;;;;;;;;;112652;210;39735;-42
2023/10/22 09:42:16;;;;;;;;;;;;;;;;;;112580;210;42751;-42
2023/10/22 09:44:49;;;;;;;;;;;;;;;;;;112626;210;41657;-43
2023/10/22 09:47:21;;;;;;;;;;;;;;;;;;112583;210;38799;-42
2023/10/22 09:50:01;;;;;;;;;;;;;;;;;;112628;210;39276;-42
2023/10/22 09:52:38;;;;;;;;;;;;;;;;;;112597;210;42529;-42
2023/10/22 09:55:16;;;;;;;;;;;;;;;;;;112566;210;42780;-43
2023/10/22 09:57:49;;;;;;;;;;;;;;;;;;112578;210;38994;-43
2023/10/22 10:00:24;;;;;;;;;;;;;;;;;;112538;210;40976;-42
2023/10/22 10:03:05;;;;;;;;;;;;;;;;;;112593;210;43837;-43
2023/10/22 10:05:39;;;;;;;;;;;;;;;;;;112661;210;42905;-42
2023/10/22 10:08:14;;;;;;;;;;;;;;;;;;112584;210;39043;-42
2023/10/22 10:10:49;;;;;;;;;;;;;;;;;;112468;210;175055;-42
2023/10/22 10:13:24;;;;;;;;;;;;;;;;;;112610;210;44170;-43
2023/10/22 10:16:05;;;;;;;;;;;;;;;;;;112573;210;41659;-42
2023/10/22 10:19:03;;;;;;;;;;;;;;;;;;112576;210;38849;-42
2023/10/22 10:21:46;;;;;;;;;;;;;;;;;;112619;210;40864;-43
2023/10/22 10:24:25;;;;;;;;;;;;;;;;;;112559;210;43997;-42
2023/10/22 10:27:27;;;;;;;;;;;;;;;;;;112525;210;43053;-44
2023/10/22 10:30:20;;;;;;;;;;;;;;;;;;112617;210;39868;-43
2023/10/22 10:33:02;;;;;;;;;;;;;;;;;;112659;210;39541;-43
2023/10/22 10:35:52;;;;;;;;;;;;;;;;;;112583;210;42515;-43
2023/10/22 10:38:29;;;;;;;;;;;;;;;;;;112416;210;41697;-42
2023/10/22 10:41:02;;;;;;;;;;;;;;;;;;112627;210;40168;-44
2023/10/22 10:44:15;;;;;;;;;;;;;;;;;;112645;211;39643;-43
2023/10/22 10:46:52;;;;;;;;;;;;;;;;;;112085;210;43226;-42
2023/10/22 10:49:54;;;;;;;;;;;;;;;;;;112177;211;434064;-42
2023/10/22 10:52:28;;;;;;;;;;;;;;;;;;112571;210;38902;-42
2023/10/22 10:55:07;;;;;;;;;;;;;;;;;;112637;210;41000;-43
2023/10/22 10:57:50;;;;;;;;;;;;;;;;;;112621;210;42719;-42
2023/10/22 11:00:27;;;;;;;;;;;;;;;;;;112593;210;41700;-42
2023/10/22 11:03:10;;;;;;;;;;;;;;;;;;112614;211;38413;-42
2023/10/22 11:05:46;;;;;;;;;;;;;;;;;;112627;210;39289;-42
2023/10/22 11:08:22;;;;;;;;;;;;;;;;;;112582;210;43200;-44
2023/10/22 11:10:57;;;;;;;;;;;;;;;;;;112612;211;42029;-42
2023/10/22 11:13:31;;;;;;;;;;;;;;;;;;112644;210;38957;-44
2023/10/22 11:16:11;;;;;;;;;;;;;;;;;;112622;210;39619;-43
2023/10/22 11:18:58;;;;;;;;;;;;;;;;;;112636;210;43074;-43
2023/10/22 11:21:31;;;;;;;;;;;;;;;;;;112641;210;41790;-45
2023/10/22 11:24:08;;;;;;;;;;;;;;;;;;112652;210;38701;-42
2023/10/22 11:26:44;;;;;;;;;;;;;;;;;;112621;210;39615;-43
2023/10/22 11:29:16;;;;;;;;;;;;;;;;;;112656;210;49148;-43
2023/10/22 11:31:59;;;;;;;;;;;;;;;;;;112661;210;41729;-43
2023/10/22 11:34:32;;;;;;;;;;;;;;;;;;112644;211;39213;-43
2023/10/22 11:37:10;;;;;;;;;;;;;;;;;;112634;211;39587;-43
2023/10/22 11:39:47;;;;;;;;;;;;;;;;;;112650;210;43990;-43
2023/10/22 11:42:24;;;;;;;;;;;;;;;;;;112598;210;41769;-44
2023/10/22 11:44:58;;;;;;;;;;;;;;;;;;112521;210;38836;-43
2023/10/22 11:47:33;;;;;;;;;;;;;;;;;;112620;210;39811;-41
2023/10/22 11:50:14;;;;;;;;;;;;;;;;;;112610;210;41914;-42
2023/10/22 11:52:56;;;;;;;;;;;;;;;;;;112631;210;43058;-45
2023/10/22 11:55:31;;;;;;;;;;;;;;;;;;112596;210;38727;-44
2023/10/22 11:58:19;;;;;;;;;;;;;;;;;;112492;210;175645;-43
2023/10/22 12:00:53;;;;;;;;;;;;;;;;;;112634;210;42716;-43
2023/10/22 12:03:25;;;;;;;;;;;;;;;;;;112639;210;41690;-43
2023/10/22 12:06:00;;;;;;;;;;;;;;;;;;112652;210;39104;-42
2023/10/22 12:08:36;;;;;;;;;;;;;;;;;;112520;210;39733;-43
2023/10/22 12:11:08;;;;;;;;;;;;;;;;;;112608;210;44966;-45
2023/10/22 12:13:40;;;;;;;;;;;;;;;;;;112467;211;41838;-43
2023/10/22 12:16:14;;;;;;;;;;;;;;;;;;112569;210;38828;-45
2023/10/22 12:18:50;;;;;;;;;;;;;;;;;;112540;210;39538;-43
2023/10/22 12:21:27;;;;;;;;;;;;;;;;;;112606;210;42698;-46
2023/10/22 12:24:06;;;;;;;;;;;;;;;;;;112639;210;41641;-44
2023/10/22 12:26:52;;;;;;;;;;;;;;;;;;112690;210;38544;-42
2023/10/22 12:29:25;;;;;;;;;;;;;;;;;;112529;210;39754;-44
2023/10/22 12:31:59;;;;;;;;;;;;;;;;;;112593;210;42794;-42
2023/10/22 12:34:33;;;;;;;;;;;;;;;;;;112611;210;42878;-43
2023/10/22 12:37:06;;;;;;;;;;;;;;;;;;112632;210;38922;-40
2023/10/22 12:39:38;;;;;;;;;;;;;;;;;;112596;210;40822;-38
2023/10/22 12:42:17;;;;;;;;;;;;;;;;;;112647;210;42546;-40
2023/10/22 12:44:52;;;;;;;;;;;;;;;;;;112668;210;41971;-40
2023/10/22 12:47:25;;;;;;;;;;;;;;;;;;112619;210;38899;-39
2023/10/22 12:50:04;;;;;;;;;;;;;;;;;;112559;210;41030;-40
2023/10/22 12:52:36;;;;;;;;;;;;;;;;;;112602;210;42884;-40
2023/10/22 12:55:13;;;;;;;;;;;;;;;;;;112623;210;41814;-40
2023/10/22 12:57:46;;;;;;;;;;;;;;;;;;112631;210;38891;-39
2023/10/22 13:00:19;;;;;;;;;;;;;;;;;;112576;210;39795;-42
2023/10/22 13:02:54;;;;;;;;;;;;;;;;;;112654;210;42880;-43
2023/10/22 13:05:30;;;;;;;;;;;;;;;;;;112568;210;41793;-43
2023/10/22 13:08:06;;;;;;;;;;;;;;;;;;112532;210;175651;-44
2023/10/22 13:10:43;;;;;;;;;;;;;;;;;;112584;210;39590;-42
2023/10/22 13:13:22;;;;;;;;;;;;;;;;;;112474;210;42711;-42
2023/10/22 13:15:57;;;;;;;;;;;;;;;;;;112481;210;42614;-45
2023/10/22 13:18:31;;;;;;;;;;;;;;;;;;112601;210;38453;-44
2023/10/22 13:21:06;;;;;;;;;;;;;;;;;;112635;210;39733;-45
2023/10/22 13:23:40;;;;;;;;;;;;;;;;;;112569;210;42892;-45
2023/10/22 13:26:16;;;;;;;;;;;;;;;;;;112638;210;41929;-43
2023/10/22 13:28:53;;;;;;;;;;;;;;;;;;112639;210;38826;-43
2023/10/22 13:31:32;;;;;;;;;;;;;;;;;;112580;210;39270;-42
2023/10/22 13:34:06;;;;;;;;;;;;;;;;;;112629;210;42645;-41
2023/10/22 13:36:40;;;;;;;;;;;;;;;;;;112615;210;41418;-41
2023/10/22 13:39:16;;;;;;;;;;;;;;;;;;112638;210;38571;-42
2023/10/22 13:41:51;;;;;;;;;;;;;;;;;;112511;210;45407;-42
2023/10/22 13:44:26;;;;;;;;;;;;;;;;;;112620;210;42691;-41
2023/10/22 13:46:59;;;;;;;;;;;;;;;;;;112545;210;41413;-41
2023/10/22 13:49:35;;;;;;;;;;;;;;;;;;112630;210;39025;-41
2023/10/22 13:52:09;;;;;;;;;;;;;;;;;;112456;210;175660;-41
2023/10/22 13:54:44;;;;;;;;;;;;;;;;;;112608;210;42795;-41
2023/10/22 13:57:22;;;;;;;;;;;;;;;;;;112588;210;41855;-40
2023/10/22 13:59:58;;;;;;;;;;;;;;;;;;112649;210;38464;-41
2023/10/22 14:02:36;;;;;;;;;;;;;;;;;;112605;210;46727;-39
2023/10/22 14:05:16;;;;;;;;;;;;;;;;;;112556;210;44135;-40
2023/10/22 14:07:53;;;;;;;;;;;;;;;;;;112619;210;41577;-39
2023/10/22 14:10:28;;;;;;;;;;;;;;;;;;112589;210;38401;-38
2023/10/22 14:13:04;;;;;;;;;;;;;;;;;;112588;210;45861;-38
2023/10/22 14:15:42;;;;;;;;;;;;;;;;;;112614;210;42543;-39
2023/10/22 14:18:17;;;;;;;;;;;;;;;;;;112545;210;41362;-40
2023/10/22 14:20:52;;;;;;;;;;;;;;;;;;112580;210;38929;-39
2023/10/22 14:23:29;;;;;;;;;;;;;;;;;;112592;210;39739;-39
2023/10/22 14:26:05;;;;;;;;;;;;;;;;;;112558;210;43028;-39
2023/10/22 14:28:40;;;;;;;;;;;;;;;;;;112558;210;41838;-39
2023/10/22 14:31:19;;;;;;;;;;;;;;;;;;112476;209;38985;-44
2023/10/22 14:33:57;;;;;;;;;;;;;;;;;;112619;210;39308;-42
2023/10/22 14:36:33;;;;;;;;;;;;;;;;;;112648;210;42705;-40
2023/10/22 14:39:08;;;;;;;;;;;;;;;;;;112680;210;41368;-39
2023/10/22 14:41:44;;;;;;;;;;;;;;;;;;112671;210;39043;-43
2023/10/22 14:44:21;;;;;;;;;;;;;;;;;;112695;210;39518;-43
2023/10/22 14:46:56;;;;;;;;;;;;;;;;;;112743;210;42721;-41
2023/10/22 14:49:31;;;;;;;;;;;;;;;;;;112623;210;42739;-41
2023/10/22 14:52:03;;;;;;;;;;;;;;;;;;112708;210;40120;-39
2023/10/22 14:54:36;;;;;;;;;;;;;;;;;;112781;210;39353;-40
2023/10/22 14:57:11;;;;;;;;;;;;;;;;;;112641;210;42821;-43
2023/10/22 14:59:46;;;;;;;;;;;;;;;;;;112699;210;41420;-44
2023/10/22 15:02:22;;;;;;;;;;;;;;;;;;112735;210;38472;-44
2023/10/22 15:04:59;;;;;;;;;;;;;;;;;;112772;210;39509;-44
2023/10/22 15:07:35;;;;;;;;;;;;;;;;;;112723;210;42726;-43
2023/10/22 15:10:10;;;;;;;;;;;;;;;;;;112735;210;41427;-44
2023/10/22 15:12:43;;;;;;;;;;;;;;;;;;112735;210;39835;-43
2023/10/22 15:15:17;;;;;;;;;;;;;;;;;;112803;210;39570;-43
2023/10/22 15:17:52;;;;;;;;;;;;;;;;;;112777;210;42716;-44
2023/10/22 15:20:26;;;;;;;;;;;;;;;;;;112785;210;41875;-46
2023/10/22 15:23:00;;;;;;;;;;;;;;;;;;112659;210;39740;-43
2023/10/22 15:25:43;;;;;;;;;;;;;;;;;;112766;210;39246;-43
2023/10/22 15:28:17;;;;;;;;;;;;;;;;;;112826;210;42730;-43
2023/10/22 15:30:53;;;;;;;;;;;;;;;;;;112813;210;41697;-44
2023/10/22 15:33:27;;;;;;;;;;;;;;;;;;112693;210;38445;-44
2023/10/22 15:36:03;;;;;;;;;;;;;;;;;;112804;210;39326;-44
2023/10/22 15:38:37;;;;;;;;;;;;;;;;;;112798;210;42532;-43
2023/10/22 15:41:14;;;;;;;;;;;;;;;;;;112789;210;42127;-44
2023/10/22 15:43:51;;;;;;;;;;;;;;;;;;112733;210;38665;-43
2023/10/22 15:46:27;;;;;;;;;;;;;;;;;;112756;210;39504;-42
2023/10/22 15:49:01;;;;;;;;;;;;;;;;;;112793;210;42914;-44
2023/10/22 15:51:37;;;;;;;;;;;;;;;;;;112772;210;41800;-43
2023/10/22 15:54:11;;;;;;;;;;;;;;;;;;112728;210;38891;-43
2023/10/22 15:56:44;;;;;;;;;;;;;;;;;;112760;210;39296;-43
2023/10/22 15:59:19;;;;;;;;;;;;;;;;;;112751;210;42578;-44
2023/10/22 16:01:56;;;;;;;;;;;;;;;;;;112803;210;41406;-44
2023/10/22 16:04:30;;;;;;;;;;;;;;;;;;112754;210;38717;-43
2023/10/22 16:07:05;;;;;;;;;;;;;;;;;;112776;210;39354;-43
2023/10/22 16:09:38;;;;;;;;;;;;;;;;;;112746;210;44217;-43
2023/10/22 16:12:15;;;;;;;;;;;;;;;;;;112739;210;41647;-43
2023/10/22 16:14:51;;;;;;;;;;;;;;;;;;112727;210;38471;-43
2023/10/22 16:17:27;;;;;;;;;;;;;;;;;;112747;210;39267;-43
2023/10/22 16:20:04;;;;;;;;;;;;;;;;;;112762;210;42570;-43
2023/10/22 16:22:43;;;;;;;;;;;;;;;;;;112700;210;42836;-44
2023/10/22 16:25:21;;;;;;;;;;;;;;;;;;112554;210;175712;-43
2023/10/22 16:27:54;;;;;;;;;;;;;;;;;;112744;210;40806;-44
2023/10/22 16:30:27;;;;;;;;;;;;;;;;;;112713;210;42660;-43
2023/10/22 16:33:00;;;;;;;;;;;;;;;;;;112706;210;41642;-43
2023/10/22 16:35:36;;;;;;;;;;;;;;;;;;112643;210;38440;-43
2023/10/22 16:38:11;;;;;;;;;;;;;;;;;;112779;210;40763;-43
2023/10/22 16:40:46;;;;;;;;;;;;;;;;;;112736;210;42487;-43
2023/10/22 16:43:21;;;;;;;;;;;;;;;;;;112739;210;41637;-43
2023/10/22 16:45:55;;;;;;;;;;;;;;;;;;112711;210;43726;-43
2023/10/22 16:48:33;;;;;;;;;;;;;;;;;;112724;210;40645;-44
2023/10/22 16:51:08;;;;;;;;;;;;;;;;;;112752;210;42531;-44
2023/10/22 16:53:44;;;;;;;;;;;;;;;;;;112720;210;41499;-46
2023/10/22 16:56:19;;;;;;;;;;;;;;;;;;112755;210;44833;-42
2023/10/22 16:59:00;;;;;;;;;;;;;;;;;;112744;210;39711;-44
2023/10/22 17:01:35;;;;;;;;;;;;;;;;;;112748;210;42874;-44
2023/10/22 17:04:09;;;;;;;;;;;;;;;;;;112725;210;41563;-44
2023/10/22 17:06:41;;;;;;;;;;;;;;;;;;112787;210;38508;-44
2023/10/22 17:09:19;;;;;;;;;;;;;;;;;;112758;210;39425;-43
2023/10/22 17:11:56;;;;;;;;;;;;;;;;;;112755;210;42742;-44
2023/10/22 17:14:32;;;;;;;;;;;;;;;;;;112743;210;41479;-44
2023/10/22 17:17:22;;;;;;;;;;;;;;;;;;112771;210;38925;-44
2023/10/22 17:19:57;;;;;;;;;;;;;;;;;;112766;210;39581;-44
2023/10/22 17:22:32;;;;;;;;;;;;;;;;;;112748;210;42452;-44
2023/10/22 17:25:09;;;;;;;;;;;;;;;;;;112731;210;41605;-44
2023/10/22 17:27:43;;;;;;;;;;;;;;;;;;112813;210;38693;-45
2023/10/22 17:30:20;;;;;;;;;;;;;;;;;;112758;210;39341;-44
2023/10/22 17:32:53;;;;;;;;;;;;;;;;;;112719;210;43009;-45
2023/10/22 17:35:30;;;;;;;;;;;;;;;;;;112693;210;41368;-43
2023/10/22 17:38:05;;;;;;;;;;;;;;;;;;112729;210;38811;-46
2023/10/22 17:40:41;;;;;;;;;;;;;;;;;;112659;210;192869;-44
2023/10/22 17:43:15;;;;;;;;;;;;;;;;;;112785;210;42714;-44
2023/10/22 17:45:47;;;;;;;;;;;;;;;;;;112766;210;41904;-44